Saint Petersburg, FL (33706)

1:22 PM EDT on August 31, 2016 (GMT -0400)
Saint Pete Beach | | Change Station

Elev 9 ft 27.74 °N, 82.75 °W | Updated 2 minutes ago

Rain
Rain Mist
74.6 °F
Feels Like 71 °F
N
0.0
Wind Variable Wind from NW
Gusts 0.0 mph

Today
High -- | Low -- °F
--% Chance of Precip.
Yesterday
High -- | Low -- °F
Precip. -- in
Pressure 29.92 in
Visibility 3.0 miles
Clouds Few 5000 ft
Mostly Cloudy 9500 ft
Overcast 11000 ft
Heat Index 71 °F
Dew Point 74 °F
Humidity 99%
Rainfall 3.78 in
Snow Depth Not available.
7:09 AM 7:52 PM
Waning Crescent, 0% visible
SPECI KSPG 311709Z 22003KT 3SM RA BR FEW050 BKN095 OVC110 24/23 A2992 RMK AO2 LTG DSNT S P0004 T02390228
Pressure 29.92 in
Visibility 3.0 miles
Clouds Few 5000 ft
Mostly Cloudy 9500 ft
Overcast 11000 ft
Heat Index 71 °F
Dew Point 74 °F
Humidity 99%
Rainfall 3.78 in
Snow Depth Not available.
7:09 AM 7:52 PM
Waning Crescent, 0% visible
SPECI KSPG 311709Z 22003KT 3SM RA BR FEW050 BKN095 OVC110 24/23 A2992 RMK AO2 LTG DSNT S P0004 T02390228

10-Day Weather Forecast

Almanac

Astronomy

Aug. 31, 2016 Rise Set
Actual Time
Civil Twilight
Nautical Twilight
Astronomical Twilight
Moon
Length of Visible Light
Length of Day
Tomorrow will be .
, % of the Moon is Illuminated

Today's Extremes

State Highs State Lows

Community

WunderPhotos

Upload Photos

1,936,137 photos uploaded!

WunderBlog® & News

Nearby

Air Quality

  Air Quality AQ Index Pollutant
Not available.

Snow Depth

Station Depth Elevation

Earthquake Activity

City Distance Mag. Time & Date
Minimum magnitude displayed is 2.5.

Coastal Water Temperatures

Place Temperature

Stations

Nearby Weather Stations

Station Location Temp. Windchill Dew Point Humidity Wind Precip. Elev Updated Type
                   

Watches & Warnings

There are currently no watches in effect.